createdAt,value
2017-12-17T00:00:52.959Z,100705.25
2017-12-17T00:03:20.925Z,100710.56
2017-12-17T00:05:48.509Z,100718.16
2017-12-17T00:08:16.445Z,100715.33
2017-12-17T00:10:44.074Z,100715.94
2017-12-17T00:13:11.683Z,100717.06
2017-12-17T00:15:39.347Z,100718.73
2017-12-17T00:18:06.951Z,100719.77
2017-12-17T00:20:34.532Z,100717.80
2017-12-17T00:23:02.141Z,100716.94
2017-12-17T00:25:29.995Z,100719.09
2017-12-17T00:27:57.654Z,100721.31
2017-12-17T00:30:25.260Z,100720.16
2017-12-17T00:32:52.861Z,100728.59
2017-12-17T00:35:20.742Z,100725.76
2017-12-17T00:37:48.336Z,100731.00
2017-12-17T00:40:15.935Z,100735.35
2017-12-17T00:42:43.555Z,100733.87
2017-12-17T00:45:11.160Z,100738.05
2017-12-17T00:47:38.745Z,100746.58
2017-12-17T00:50:06.625Z,100744.52
2017-12-17T00:52:34.208Z,100747.94
2017-12-17T00:55:01.819Z,100742.53
2017-12-17T00:57:29.444Z,100742.88
2017-12-17T00:59:57.064Z,100745.04
2017-12-17T01:02:24.689Z,100752.96
2017-12-17T01:04:52.284Z,100750.00
2017-12-17T01:07:19.880Z,100753.86
2017-12-17T01:09:47.505Z,100753.06
2017-12-17T01:12:15.080Z,100755.28
2017-12-17T01:14:42.707Z,100754.19
2017-12-17T01:17:10.329Z,100757.30
2017-12-17T01:19:37.943Z,100761.58
2017-12-17T01:22:05.832Z,100759.66
2017-12-17T01:24:33.405Z,100758.94
2017-12-17T01:27:01.041Z,100768.09
2017-12-17T01:29:28.636Z,100770.73
2017-12-17T01:31:56.263Z,100773.08
2017-12-17T01:34:23.884Z,100772.50
2017-12-17T01:36:51.483Z,100778.74
2017-12-17T01:39:19.170Z,100779.33
2017-12-17T01:41:47.133Z,100773.81
2017-12-17T01:44:14.780Z,100774.12
2017-12-17T01:46:42.392Z,100768.53
2017-12-17T01:49:09.994Z,100778.90
2017-12-17T01:51:37.640Z,100778.02
2017-12-17T01:54:05.504Z,100771.84
2017-12-17T01:56:33.096Z,100778.14
2017-12-17T01:59:00.744Z,100786.30
2017-12-17T02:01:28.320Z,100784.39
2017-12-17T02:03:55.950Z,100784.12
2017-12-17T02:06:23.569Z,100782.70
2017-12-17T02:08:51.187Z,100784.33
2017-12-17T02:11:18.808Z,100785.94
2017-12-17T02:13:46.402Z,100791.88
2017-12-17T02:16:14.040Z,100789.34
2017-12-17T02:18:41.633Z,100798.34
2017-12-17T02:21:09.212Z,100803.69
2017-12-17T02:23:36.831Z,100798.77
2017-12-17T02:26:04.759Z,100800.02
2017-12-17T02:28:32.658Z,100801.28
2017-12-17T02:31:00.300Z,100800.34
2017-12-17T02:33:27.911Z,100795.28
2017-12-17T02:35:55.531Z,100799.07
2017-12-17T02:38:23.152Z,100800.39
2017-12-17T02:40:50.777Z,100810.70
2017-12-17T02:43:18.368Z,100815.50
2017-12-17T02:45:45.998Z,100815.26
2017-12-17T02:48:13.611Z,100817.48
2017-12-17T02:50:41.247Z,100815.70
2017-12-17T02:53:08.900Z,100816.51
2017-12-17T02:55:36.497Z,100817.53
2017-12-17T02:58:04.100Z,100820.25
2017-12-17T03:00:31.704Z,100831.69
2017-12-17T03:02:59.299Z,100829.53
2017-12-17T03:05:27.171Z,100829.84
2017-12-17T03:07:54.767Z,100824.45
2017-12-17T03:10:22.356Z,100825.46
2017-12-17T03:12:49.991Z,100834.58
2017-12-17T03:15:17.567Z,100834.34
2017-12-17T03:17:45.481Z,100838.24
2017-12-17T03:20:13.103Z,100838.05
2017-12-17T03:22:40.694Z,100837.27
2017-12-17T03:25:08.316Z,100841.70
2017-12-17T03:27:36.236Z,100840.25
2017-12-17T03:30:04.108Z,100838.65
2017-12-17T03:32:31.700Z,100840.25
2017-12-17T03:34:59.280Z,100840.30
2017-12-17T03:37:26.895Z,100849.30
2017-12-17T03:39:54.484Z,100843.50
2017-12-17T03:42:22.125Z,100852.37
2017-12-17T03:44:49.758Z,100844.53
2017-12-17T03:47:17.655Z,100848.36
2017-12-17T03:49:45.298Z,100852.26
2017-12-17T03:52:12.896Z,100849.38
2017-12-17T03:54:40.538Z,100853.36
2017-12-17T03:57:08.118Z,100852.27
2017-12-17T03:59:35.720Z,100854.66
2017-12-17T04:02:03.339Z,100851.97
2017-12-17T04:04:30.936Z,100862.83
2017-12-17T04:06:58.573Z,100863.61
2017-12-17T04:09:26.156Z,100865.05
2017-12-17T04:11:53.763Z,100868.27
2017-12-17T04:14:21.369Z,100867.33
2017-12-17T04:16:48.982Z,100867.67
2017-12-17T04:19:16.608Z,100868.09
2017-12-17T04:21:44.216Z,100875.38
2017-12-17T04:24:12.088Z,100886.41
2017-12-17T04:26:39.944Z,100883.03
2017-12-17T04:29:07.520Z,100895.56
2017-12-17T04:31:35.131Z,100901.84
2017-12-17T04:34:02.719Z,100902.05
2017-12-17T04:36:30.405Z,100903.73
2017-12-17T04:38:58.008Z,100905.14
2017-12-17T04:41:25.585Z,100908.78
2017-12-17T04:43:53.196Z,100910.56
2017-12-17T04:46:21.054Z,100908.84
2017-12-17T04:48:48.920Z,100909.86
2017-12-17T04:51:16.789Z,100911.06
2017-12-17T04:53:44.360Z,100907.87
2017-12-17T04:56:11.987Z,100909.78
2017-12-17T04:58:39.576Z,100913.62
2017-12-17T05:01:07.159Z,100917.45
2017-12-17T05:03:34.776Z,100925.42
2017-12-17T05:06:02.350Z,100924.67
2017-12-17T05:08:29.970Z,100925.94
2017-12-17T05:10:57.552Z,100926.33
2017-12-17T05:13:25.142Z,100935.14
2017-12-17T05:15:52.763Z,100940.15
2017-12-17T05:18:20.363Z,100943.51
2017-12-17T05:20:48.237Z,100946.98
2017-12-17T05:23:16.094Z,100948.39
2017-12-17T05:25:43.680Z,100950.99
2017-12-17T05:28:11.293Z,100948.66
2017-12-17T05:30:39.186Z,100951.05
2017-12-17T05:33:07.157Z,100959.56
2017-12-17T05:35:34.740Z,100964.48
2017-12-17T05:38:02.337Z,100967.05
2017-12-17T05:40:29.944Z,100974.39
2017-12-17T05:42:57.520Z,100974.18
2017-12-17T05:45:25.150Z,100981.55
2017-12-17T05:47:52.741Z,100982.91
2017-12-17T05:50:20.593Z,100986.33
2017-12-17T05:52:48.207Z,100993.28
2017-12-17T05:55:16.133Z,100996.19
2017-12-17T05:57:44.586Z,101002.83
2017-12-17T06:00:12.188Z,101003.58
2017-12-17T06:02:39.810Z,101010.23
2017-12-17T06:05:07.431Z,100994.94
2017-12-17T06:07:35.029Z,100996.32
2017-12-17T06:10:02.668Z,100995.73
2017-12-17T06:12:30.276Z,101004.70
2017-12-17T06:14:57.855Z,101004.05
2017-12-17T06:17:25.452Z,101000.14
2017-12-17T06:19:53.038Z,100995.44
2017-12-17T06:22:20.671Z,101003.82
2017-12-17T06:24:48.256Z,101003.14
2017-12-17T06:27:15.873Z,101006.92
2017-12-17T06:29:43.485Z,101009.84
2017-12-17T06:32:11.381Z,101008.47
2017-12-17T06:34:39.025Z,101018.78
2017-12-17T06:37:06.607Z,101016.68
2017-12-17T06:39:34.489Z,101015.78
2017-12-17T06:42:02.441Z,101014.98
2017-12-17T06:44:30.346Z,101019.50
2017-12-17T06:46:58.000Z,101023.86
2017-12-17T06:49:25.954Z,101029.42
2017-12-17T06:51:53.527Z,101037.33
2017-12-17T06:54:21.137Z,101045.91
2017-12-17T06:56:48.741Z,101042.83
2017-12-17T06:59:16.704Z,101048.43
2017-12-17T07:01:44.573Z,101052.31
2017-12-17T07:04:16.052Z,101061.00
2017-12-17T07:06:43.664Z,101057.73
2017-12-17T07:09:11.250Z,101067.56
2017-12-17T07:11:38.860Z,101069.39
2017-12-17T07:14:06.447Z,101063.37
2017-12-17T07:16:34.076Z,101067.48
2017-12-17T07:19:01.909Z,101069.70
2017-12-17T07:21:29.503Z,101069.96
2017-12-17T07:23:57.124Z,101076.61
2017-12-17T07:26:24.709Z,101079.11
2017-12-17T07:28:52.353Z,101080.80
2017-12-17T07:31:19.953Z,101088.09
2017-12-17T07:33:47.576Z,101092.77
2017-12-17T07:36:15.202Z,101096.66
2017-12-17T07:38:42.796Z,101101.98
2017-12-17T07:41:10.764Z,101106.09
2017-12-17T07:43:38.385Z,101111.73
2017-12-17T07:46:05.972Z,101119.44
2017-12-17T07:48:33.592Z,101113.09
2017-12-17T07:51:01.190Z,101116.22
2017-12-17T07:53:28.827Z,101124.07
2017-12-17T07:55:56.436Z,101125.81
2017-12-17T07:58:24.033Z,101131.50
2017-12-17T08:00:51.963Z,101131.37
2017-12-17T08:03:19.551Z,101135.20
2017-12-17T08:05:47.191Z,101134.66
2017-12-17T08:08:14.775Z,101146.47
2017-12-17T08:10:42.376Z,101141.14
2017-12-17T08:13:09.983Z,101145.75
2017-12-17T08:15:37.563Z,101151.45
2017-12-17T08:18:05.198Z,101154.36
2017-12-17T08:20:32.789Z,101157.78
2017-12-17T08:23:00.377Z,101160.67
2017-12-17T08:25:28.285Z,101167.44
2017-12-17T08:27:55.952Z,101168.09
2017-12-17T08:30:23.570Z,101173.13
2017-12-17T08:32:51.163Z,101180.20
2017-12-17T08:35:18.752Z,101184.52
2017-12-17T08:37:46.704Z,101189.31
2017-12-17T08:40:14.284Z,101196.64
2017-12-17T08:42:41.928Z,101195.06
2017-12-17T08:45:09.809Z,101192.92
2017-12-17T08:47:37.440Z,101200.76
2017-12-17T08:50:05.048Z,101206.87
2017-12-17T08:52:32.644Z,101214.31
2017-12-17T08:55:00.557Z,101218.81
2017-12-17T08:57:28.161Z,101225.39
2017-12-17T08:59:56.196Z,101219.23
2017-12-17T09:02:23.808Z,101224.95
2017-12-17T09:04:51.824Z,101233.30
2017-12-17T09:07:19.795Z,101230.89
2017-12-17T09:09:47.385Z,101234.73
2017-12-17T09:12:14.964Z,101242.53
2017-12-17T09:14:42.628Z,101240.97
2017-12-17T09:17:10.266Z,101248.03
2017-12-17T09:19:37.904Z,101251.66
2017-12-17T09:22:05.497Z,101258.09
2017-12-17T09:24:34.048Z,101264.52
2017-12-17T09:27:01.669Z,101269.81
2017-12-17T09:29:29.333Z,101267.37
2017-12-17T09:31:56.976Z,101271.88
2017-12-17T09:34:24.556Z,101274.02
2017-12-17T09:36:52.162Z,101280.73
2017-12-17T09:39:19.788Z,101279.73
2017-12-17T09:41:47.373Z,101281.76
2017-12-17T09:44:14.995Z,101289.16
2017-12-17T09:46:42.576Z,101291.70
2017-12-17T09:49:10.176Z,101297.19
2017-12-17T09:51:37.816Z,101298.84
2017-12-17T09:54:05.397Z,101301.14
2017-12-17T09:56:32.981Z,101299.73
2017-12-17T09:59:00.954Z,101303.75
2017-12-17T10:01:28.552Z,101304.25
2017-12-17T10:03:56.145Z,101308.06
2017-12-17T10:06:23.773Z,101302.06
2017-12-17T10:08:51.384Z,101307.84
2017-12-17T10:11:19.341Z,101311.48
2017-12-17T10:13:46.960Z,101306.16
2017-12-17T10:16:14.542Z,101304.05
2017-12-17T10:18:42.140Z,101311.37
2017-12-17T10:21:09.819Z,101311.91
2017-12-17T10:23:37.404Z,101315.11
2017-12-17T10:26:05.041Z,101323.03
2017-12-17T10:28:32.679Z,101321.11
2017-12-17T10:31:00.317Z,101322.39
2017-12-17T10:33:27.930Z,101323.23
2017-12-17T10:35:55.550Z,101320.65
2017-12-17T10:38:23.227Z,101328.67
2017-12-17T10:40:50.837Z,101321.89
2017-12-17T10:43:18.449Z,101320.28
2017-12-17T10:45:46.418Z,101330.23
2017-12-17T10:48:14.081Z,101331.00
2017-12-17T10:50:41.716Z,101335.81
2017-12-17T10:53:09.608Z,101338.28
2017-12-17T10:55:37.476Z,101334.85
2017-12-17T10:58:05.085Z,101339.07
2017-12-17T11:00:33.009Z,101341.82
2017-12-17T11:03:00.638Z,101344.97
2017-12-17T11:05:28.229Z,101354.12
2017-12-17T11:07:55.902Z,101343.62
2017-12-17T11:10:23.761Z,101349.16
2017-12-17T11:12:51.391Z,101354.37
2017-12-17T11:15:19.048Z,101355.55
2017-12-17T11:17:46.624Z,101356.92
2017-12-17T11:20:14.219Z,101351.90
2017-12-17T11:22:42.068Z,101356.28
2017-12-17T11:25:09.701Z,101353.50
2017-12-17T11:27:37.358Z,101359.09
2017-12-17T11:30:04.940Z,101359.47
2017-12-17T11:32:32.533Z,101359.63
2017-12-17T11:35:00.224Z,101360.30
2017-12-17T11:37:27.844Z,101363.59
2017-12-17T11:39:55.487Z,101371.20
2017-12-17T11:42:23.126Z,101366.54
2017-12-17T11:44:50.728Z,101377.46
2017-12-17T11:47:18.355Z,101371.62
2017-12-17T11:49:46.993Z,101370.72
2017-12-17T11:52:14.615Z,101370.92
2017-12-17T11:54:42.521Z,101379.20
2017-12-17T11:57:10.385Z,101376.05
2017-12-17T11:59:37.995Z,101376.05
2017-12-17T12:02:05.572Z,101382.17
2017-12-17T12:04:33.223Z,101381.59
2017-12-17T12:07:00.807Z,101380.27
2017-12-17T12:09:28.434Z,101388.30
2017-12-17T12:11:56.097Z,101381.81
2017-12-17T12:14:23.753Z,101383.24
2017-12-17T12:16:51.377Z,101390.34
2017-12-17T12:19:19.251Z,101392.36
2017-12-17T12:21:46.825Z,101395.48
2017-12-17T12:24:15.228Z,101403.03
2017-12-17T12:26:42.821Z,101409.51
2017-12-17T12:29:10.457Z,101413.27
2017-12-17T12:31:38.043Z,101412.00
2017-12-17T12:34:05.682Z,101419.27
2017-12-17T12:36:33.330Z,101418.97
2017-12-17T12:39:00.908Z,101419.06
2017-12-17T12:41:28.551Z,101419.70
2017-12-17T12:43:56.396Z,101420.92
2017-12-17T12:46:23.987Z,101423.81
2017-12-17T12:48:51.615Z,101426.47
2017-12-17T12:51:19.697Z,101429.42
2017-12-17T12:56:21.075Z,101433.38
2017-12-17T12:58:48.776Z,101443.63
2017-12-17T13:01:16.807Z,101440.18
2017-12-17T13:03:44.426Z,101445.78
2017-12-17T13:06:12.055Z,101440.40
2017-12-17T13:08:39.644Z,101445.98
2017-12-17T13:11:07.293Z,101445.20
2017-12-17T13:13:34.884Z,101443.72
2017-12-17T13:16:02.785Z,101447.42
2017-12-17T13:18:30.393Z,101439.48
2017-12-17T13:20:57.988Z,101443.14
2017-12-17T13:23:25.611Z,101449.63
2017-12-17T13:25:53.209Z,101451.42
2017-12-17T13:28:20.795Z,101455.34
2017-12-17T13:30:48.413Z,101457.02
2017-12-17T13:33:16.318Z,101458.39
2017-12-17T13:35:43.928Z,101461.87
2017-12-17T13:38:11.509Z,101464.98
2017-12-17T13:40:39.120Z,101465.35
2017-12-17T13:43:06.772Z,101463.34
2017-12-17T13:45:34.629Z,101468.42
2017-12-17T13:48:02.602Z,101472.53
2017-12-17T13:50:30.186Z,101480.08
2017-12-17T13:52:57.785Z,101476.44
2017-12-17T13:55:25.693Z,101482.20
2017-12-17T13:57:53.555Z,101482.92
2017-12-17T14:00:21.424Z,101489.42
2017-12-17T14:02:49.268Z,101495.80
2017-12-17T14:05:16.847Z,101506.62
2017-12-17T14:07:44.453Z,101504.09
2017-12-17T14:10:12.023Z,101502.77
2017-12-17T14:12:39.653Z,101508.63
2017-12-17T14:15:07.242Z,101513.95
2017-12-17T14:17:35.206Z,101517.02
2017-12-17T14:20:03.139Z,101517.98
2017-12-17T14:22:30.968Z,101524.33
2017-12-17T14:24:58.577Z,101524.57
2017-12-17T14:27:26.239Z,101528.70
2017-12-17T14:29:53.885Z,101524.67
2017-12-17T14:32:21.512Z,101531.22
2017-12-17T14:34:49.084Z,101538.23
2017-12-17T14:37:16.712Z,101544.88
2017-12-17T14:39:44.300Z,101540.88
2017-12-17T14:42:11.895Z,101544.72
2017-12-17T14:44:39.565Z,101549.63
2017-12-17T14:47:07.157Z,101551.58
2017-12-17T14:49:34.780Z,101557.48
2017-12-17T14:52:02.380Z,101559.44
2017-12-17T14:54:29.997Z,101561.70
2017-12-17T14:56:57.881Z,101573.63
2017-12-17T14:59:25.747Z,101573.47
2017-12-17T15:01:53.721Z,101576.59
2017-12-17T15:04:21.315Z,101577.91
2017-12-17T15:06:48.891Z,101583.88
2017-12-17T15:09:16.813Z,101588.93
2017-12-17T15:11:44.680Z,101590.41
2017-12-17T15:14:12.309Z,101593.63
2017-12-17T15:16:39.899Z,101594.10
2017-12-17T15:19:07.597Z,101603.15
2017-12-17T15:21:35.276Z,101608.88
2017-12-17T15:24:02.876Z,101606.55
2017-12-17T15:26:30.549Z,101611.27
2017-12-17T15:28:58.198Z,101621.88
2017-12-17T15:31:26.098Z,101622.25
2017-12-17T15:33:53.714Z,101624.96
2017-12-17T15:36:21.312Z,101627.95
2017-12-17T15:38:49.007Z,101628.20
2017-12-17T15:41:16.654Z,101627.53
2017-12-17T15:43:44.609Z,101626.27
2017-12-17T15:46:12.477Z,101630.54
2017-12-17T15:48:40.134Z,101639.25
2017-12-17T15:51:07.770Z,101636.08
2017-12-17T15:53:35.352Z,101634.55
2017-12-17T15:56:02.952Z,101639.25
2017-12-17T15:58:30.548Z,101636.98
2017-12-17T16:00:58.461Z,101638.61
2017-12-17T16:03:26.088Z,101645.16
2017-12-17T16:05:53.681Z,101652.80
2017-12-17T16:08:21.328Z,101656.18
2017-12-17T16:10:48.952Z,101663.02
2017-12-17T16:13:16.539Z,101664.19
2017-12-17T16:15:44.169Z,101671.80
2017-12-17T16:18:11.767Z,101678.30
2017-12-17T16:20:39.392Z,101687.16
2017-12-17T16:23:07.008Z,101680.85
2017-12-17T16:25:34.579Z,101685.23
2017-12-17T16:28:02.205Z,101695.68
2017-12-17T16:30:29.800Z,101693.89
2017-12-17T16:32:57.431Z,101699.08
2017-12-17T16:35:25.071Z,101700.22
2017-12-17T16:37:52.656Z,101709.53
2017-12-17T16:40:20.601Z,101699.08
2017-12-17T16:42:48.263Z,101705.36
2017-12-17T16:45:15.884Z,101704.73
2017-12-17T16:47:43.544Z,101707.57
2017-12-17T16:50:11.212Z,101715.48
2017-12-17T16:52:38.865Z,101717.56
2017-12-17T16:55:06.476Z,101719.45
2017-12-17T16:57:34.076Z,101722.61
2017-12-17T17:00:01.778Z,101722.08
2017-12-17T17:02:29.502Z,101727.25
2017-12-17T17:04:57.138Z,101733.68
2017-12-17T17:07:24.923Z,101729.38
2017-12-17T17:09:52.684Z,101734.71
2017-12-17T17:12:20.311Z,101735.27
2017-12-17T17:14:47.903Z,101738.55
2017-12-17T17:17:15.520Z,101735.37
2017-12-17T17:19:43.104Z,101744.23
2017-12-17T17:22:10.738Z,101753.31
2017-12-17T17:24:38.694Z,101754.96
2017-12-17T17:27:06.579Z,101757.97
2017-12-17T17:29:34.242Z,101752.27
2017-12-17T17:32:01.868Z,101757.50
2017-12-17T17:34:29.505Z,101767.73
2017-12-17T17:36:57.441Z,101774.52
2017-12-17T17:39:25.133Z,101780.88
2017-12-17T17:41:52.799Z,101783.38
2017-12-17T17:44:20.395Z,101783.94
2017-12-17T17:46:48.390Z,101789.22
2017-12-17T17:49:16.012Z,101788.00
2017-12-17T17:51:43.715Z,101787.62
2017-12-17T17:54:11.351Z,101782.67
2017-12-17T17:56:39.031Z,101787.29
2017-12-17T17:59:06.621Z,101784.98
2017-12-17T18:01:34.240Z,101785.92
2017-12-17T18:04:01.869Z,101785.13
2017-12-17T18:06:29.498Z,101784.28
2017-12-17T18:08:57.128Z,101778.66
2017-12-17T18:11:24.742Z,101779.70
2017-12-17T18:13:52.348Z,101784.79
2017-12-17T18:16:19.976Z,101781.41
2017-12-17T18:18:50.566Z,101783.99
2017-12-17T18:21:18.188Z,101778.34
2017-12-17T18:23:45.810Z,101783.30
2017-12-17T18:26:13.393Z,101784.30
2017-12-17T18:28:41.030Z,101785.78
2017-12-17T18:31:08.877Z,101787.67
2017-12-17T18:33:37.014Z,101785.84
2017-12-17T18:36:05.661Z,101791.48
2017-12-17T18:38:34.264Z,101784.47
2017-12-17T18:41:01.988Z,101786.36
2017-12-17T18:43:29.642Z,101790.47
2017-12-17T18:45:57.260Z,101801.81
2017-12-17T18:48:24.926Z,101792.73
2017-12-17T18:50:52.745Z,101796.39
2017-12-17T18:53:20.411Z,101797.43
2017-12-17T18:55:48.389Z,101804.83
2017-12-17T18:58:16.030Z,101800.81
2017-12-17T19:00:43.682Z,101802.66
2017-12-17T19:03:11.284Z,101801.61
2017-12-17T19:05:39.236Z,101802.28
2017-12-17T19:08:06.823Z,101802.23
2017-12-17T19:10:34.454Z,101805.15
2017-12-17T19:13:02.076Z,101806.39
2017-12-17T19:15:29.657Z,101804.83
2017-12-17T19:17:58.280Z,101801.72
2017-12-17T19:20:25.860Z,101802.75
2017-12-17T19:22:53.484Z,101807.46
2017-12-17T19:25:21.142Z,101810.77
2017-12-17T19:27:48.786Z,101808.20
2017-12-17T19:30:16.412Z,101811.74
2017-12-17T19:32:43.991Z,101813.78
2017-12-17T19:35:11.592Z,101816.41
2017-12-17T19:37:39.232Z,101822.96
2017-12-17T19:40:07.141Z,101824.98
2017-12-17T19:42:34.774Z,101828.61
2017-12-17T19:45:02.669Z,101831.20
2017-12-17T19:47:30.270Z,101829.55
2017-12-17T19:49:57.864Z,101826.39
2017-12-17T19:52:25.466Z,101830.03
2017-12-17T19:54:53.517Z,101830.97
2017-12-17T19:57:21.133Z,101834.41
2017-12-17T19:59:48.711Z,101828.61
2017-12-17T20:02:16.374Z,101825.50
2017-12-17T20:04:43.965Z,101826.77
2017-12-17T20:07:11.622Z,101833.94
2017-12-17T20:09:39.258Z,101835.91
2017-12-17T20:12:06.852Z,101845.95
2017-12-17T20:14:34.483Z,101847.22
2017-12-17T20:17:02.089Z,101849.91
2017-12-17T20:19:29.840Z,101848.86
2017-12-17T20:21:57.820Z,101847.27
2017-12-17T20:24:25.435Z,101856.30
2017-12-17T20:26:54.777Z,101855.45
2017-12-17T20:29:20.720Z,101857.63
2017-12-17T20:31:48.347Z,101859.61
2017-12-17T20:34:16.026Z,101865.06
2017-12-17T20:36:43.896Z,101861.63
2017-12-17T20:39:11.538Z,101856.45
2017-12-17T20:41:39.452Z,101858.20
2017-12-17T20:44:07.137Z,101855.97
2017-12-17T20:46:35.066Z,101867.80
2017-12-17T20:49:02.742Z,101867.28
2017-12-17T20:51:30.390Z,101864.36
2017-12-17T20:53:57.989Z,101864.92
2017-12-17T20:56:25.612Z,101866.93
2017-12-17T20:58:53.210Z,101869.81
2017-12-17T21:01:20.788Z,101870.09
2017-12-17T21:03:48.445Z,101875.13
2017-12-17T21:06:16.060Z,101880.40
2017-12-17T21:08:43.929Z,101874.47
2017-12-17T21:11:11.803Z,101877.81
2017-12-17T21:13:39.439Z,101883.08
2017-12-17T21:16:07.061Z,101875.56
2017-12-17T21:18:34.658Z,101877.91
2017-12-17T21:21:02.291Z,101878.98
2017-12-17T21:23:29.887Z,101876.06
2017-12-17T21:25:57.929Z,101870.24
2017-12-17T21:28:25.586Z,101875.89
2017-12-17T21:30:53.509Z,101873.53
2017-12-17T21:33:21.477Z,101882.15
2017-12-17T21:35:49.634Z,101889.79
2017-12-17T21:38:17.231Z,101895.86
2017-12-17T21:40:45.200Z,101891.81
2017-12-17T21:43:12.787Z,101895.30
2017-12-17T21:45:40.430Z,101893.64
2017-12-17T21:48:08.085Z,101894.16
2017-12-17T21:50:35.672Z,101894.64
2017-12-17T21:53:03.304Z,101892.33
2017-12-17T21:55:30.942Z,101896.01
2017-12-17T21:57:58.594Z,101894.73
2017-12-17T22:00:26.197Z,101902.92
2017-12-17T22:02:53.792Z,101898.97
2017-12-17T22:05:21.408Z,101896.81
2017-12-17T22:07:48.984Z,101904.41
2017-12-17T22:10:16.613Z,101903.46
2017-12-17T22:12:44.194Z,101906.94
2017-12-17T22:15:11.780Z,101908.67
2017-12-17T22:17:39.411Z,101898.49
2017-12-17T22:20:06.988Z,101901.93
2017-12-17T22:22:34.621Z,101907.78
2017-12-17T22:25:02.208Z,101909.67
2017-12-17T22:27:29.842Z,101908.73
2017-12-17T22:29:57.456Z,101908.64
2017-12-17T22:32:25.068Z,101904.63
2017-12-17T22:34:52.725Z,101904.72
2017-12-17T22:37:20.394Z,101904.83
2017-12-17T22:39:47.981Z,101900.38
2017-12-17T22:42:15.651Z,101903.20
2017-12-17T22:44:43.604Z,101896.64
2017-12-17T22:47:11.581Z,101896.38
2017-12-17T22:49:39.195Z,101896.62
2017-12-17T22:52:06.831Z,101894.61
2017-12-17T22:54:34.770Z,101888.36
2017-12-17T22:57:02.354Z,101892.33
2017-12-17T22:59:29.985Z,101895.77
2017-12-17T23:01:57.579Z,101900.07
2017-12-17T23:04:25.201Z,101894.95
2017-12-17T23:06:52.824Z,101886.76
2017-12-17T23:09:20.748Z,101893.99
2017-12-17T23:11:48.715Z,101889.79
2017-12-17T23:14:16.294Z,101893.08
2017-12-17T23:16:43.886Z,101893.05
2017-12-17T23:19:11.499Z,101891.28
2017-12-17T23:21:39.372Z,101895.67
2017-12-17T23:24:06.992Z,101895.34
2017-12-17T23:26:34.571Z,101890.60
2017-12-17T23:29:02.279Z,101890.09
2017-12-17T23:31:29.896Z,101894.01
2017-12-17T23:33:57.480Z,101886.34
2017-12-17T23:36:25.190Z,101882.25
2017-12-17T23:38:52.786Z,101886.61
2017-12-17T23:41:20.367Z,101885.34
2017-12-17T23:43:48.004Z,101883.42
2017-12-17T23:46:15.844Z,101878.76
2017-12-17T23:48:43.462Z,101886.26
2017-12-17T23:51:11.048Z,101886.11
2017-12-17T23:53:38.633Z,101880.73
2017-12-17T23:56:06.246Z,101888.61
2017-12-17T23:58:33.871Z,101888.77
